sensor_id;sensor_type;location;lat;lon;timestamp;temperature;humidity
69595;DHT22;56800;52.142;5.364;2022-11-20T00:00:16;-0.30;70.30
69595;DHT22;56800;52.142;5.364;2022-11-20T00:02:43;-0.30;70.50
69595;DHT22;56800;52.142;5.364;2022-11-20T00:05:09;-0.30;70.50
69595;DHT22;56800;52.142;5.364;2022-11-20T00:07:36;-0.30;70.60
69595;DHT22;56800;52.142;5.364;2022-11-20T00:10:03;-0.30;70.60
69595;DHT22;56800;52.142;5.364;2022-11-20T00:12:30;-0.30;70.60
69595;DHT22;56800;52.142;5.364;2022-11-20T00:14:56;-0.30;70.70
69595;DHT22;56800;52.142;5.364;2022-11-20T00:17:23;-0.30;70.60
69595;DHT22;56800;52.142;5.364;2022-11-20T00:19:49;-0.30;70.60
69595;DHT22;56800;52.142;5.364;2022-11-20T00:22:16;-0.30;70.50
69595;DHT22;56800;52.142;5.364;2022-11-20T00:24:42;-0.30;70.60
69595;DHT22;56800;52.142;5.364;2022-11-20T00:27:09;-0.30;70.60
69595;DHT22;56800;52.142;5.364;2022-11-20T00:29:36;-0.30;70.60
69595;DHT22;56800;52.142;5.364;2022-11-20T00:32:02;-0.30;70.70
69595;DHT22;56800;52.142;5.364;2022-11-20T00:34:29;-0.30;70.70
69595;DHT22;56800;52.142;5.364;2022-11-20T00:36:56;-0.30;70.70
69595;DHT22;56800;52.142;5.364;2022-11-20T00:39:22;-0.30;70.80
69595;DHT22;56800;52.142;5.364;2022-11-20T00:41:49;-0.30;70.80
69595;DHT22;56800;52.142;5.364;2022-11-20T00:44:16;-0.30;70.90
69595;DHT22;56800;52.142;5.364;2022-11-20T00:46:43;-0.30;70.80
69595;DHT22;56800;52.142;5.364;2022-11-20T00:49:09;-0.40;70.80
69595;DHT22;56800;52.142;5.364;2022-11-20T00:51:36;-0.40;70.90
69595;DHT22;56800;52.142;5.364;2022-11-20T00:54:03;-0.30;71.00
69595;DHT22;56800;52.142;5.364;2022-11-20T00:56:29;-0.30;71.50
69595;DHT22;56800;52.142;5.364;2022-11-20T00:58:59;-0.30;71.10
69595;DHT22;56800;52.142;5.364;2022-11-20T01:01:27;-0.40;71.10
69595;DHT22;56800;52.142;5.364;2022-11-20T01:03:58;-0.40;71.20
69595;DHT22;56800;52.142;5.364;2022-11-20T01:06:30;-0.30;71.20
69595;DHT22;56800;52.142;5.364;2022-11-20T01:08:59;-0.40;71.10
69595;DHT22;56800;52.142;5.364;2022-11-20T01:11:28;-0.40;71.10
69595;DHT22;56800;52.142;5.364;2022-11-20T01:13:56;-0.40;71.20
69595;DHT22;56800;52.142;5.364;2022-11-20T01:16:31;-0.40;71.20
69595;DHT22;56800;52.142;5.364;2022-11-20T01:19:00;-0.40;71.30
69595;DHT22;56800;52.142;5.364;2022-11-20T01:21:29;-0.40;71.20
69595;DHT22;56800;52.142;5.364;2022-11-20T01:23:57;-0.40;71.20
69595;DHT22;56800;52.142;5.364;2022-11-20T01:26:26;-0.40;71.20
69595;DHT22;56800;52.142;5.364;2022-11-20T01:28:54;-0.40;71.20
69595;DHT22;56800;52.142;5.364;2022-11-20T01:33:56;-0.40;71.20
69595;DHT22;56800;52.142;5.364;2022-11-20T01:36:25;-0.50;71.20
69595;DHT22;56800;52.142;5.364;2022-11-20T01:38:53;-0.40;71.20
69595;DHT22;56800;52.142;5.364;2022-11-20T01:41:20;-0.50;71.20
69595;DHT22;56800;52.142;5.364;2022-11-20T01:44:06;-0.50;71.30
69595;DHT22;56800;52.142;5.364;2022-11-20T01:46:35;-0.50;71.20
69595;DHT22;56800;52.142;5.364;2022-11-20T01:49:12;-0.50;71.30
69595;DHT22;56800;52.142;5.364;2022-11-20T01:51:50;-0.50;71.40
69595;DHT22;56800;52.142;5.364;2022-11-20T01:54:21;-0.50;71.60
69595;DHT22;56800;52.142;5.364;2022-11-20T01:56:51;-0.50;71.60
69595;DHT22;56800;52.142;5.364;2022-11-20T01:59:21;-0.50;71.60
69595;DHT22;56800;52.142;5.364;2022-11-20T02:01:50;-0.50;71.60
69595;DHT22;56800;52.142;5.364;2022-11-20T02:04:17;-0.50;71.50
69595;DHT22;56800;52.142;5.364;2022-11-20T02:06:48;-0.50;71.60
69595;DHT22;56800;52.142;5.364;2022-11-20T02:09:16;-0.50;71.50
69595;DHT22;56800;52.142;5.364;2022-11-20T02:11:43;-0.50;71.40
69595;DHT22;56800;52.142;5.364;2022-11-20T02:14:10;-0.50;71.40
69595;DHT22;56800;52.142;5.364;2022-11-20T02:16:40;-0.50;71.30
69595;DHT22;56800;52.142;5.364;2022-11-20T02:19:22;-0.60;71.20
69595;DHT22;56800;52.142;5.364;2022-11-20T02:22:00;-0.60;71.30
69595;DHT22;56800;52.142;5.364;2022-11-20T02:24:28;-0.60;71.20
69595;DHT22;56800;52.142;5.364;2022-11-20T02:27:14;-0.60;71.20
69595;DHT22;56800;52.142;5.364;2022-11-20T02:29:49;-0.70;71.20
69595;DHT22;56800;52.142;5.364;2022-11-20T02:34:52;-0.70;71.30
69595;DHT22;56800;52.142;5.364;2022-11-20T02:37:20;-0.70;71.50
69595;DHT22;56800;52.142;5.364;2022-11-20T02:39:49;-0.70;71.50
69595;DHT22;56800;52.142;5.364;2022-11-20T02:42:16;-0.70;71.60
69595;DHT22;56800;52.142;5.364;2022-11-20T02:44:43;-0.80;71.60
69595;DHT22;56800;52.142;5.364;2022-11-20T02:47:10;-0.80;71.80
69595;DHT22;56800;52.142;5.364;2022-11-20T02:49:36;-0.80;71.80
69595;DHT22;56800;52.142;5.364;2022-11-20T02:52:03;-0.80;71.90
69595;DHT22;56800;52.142;5.364;2022-11-20T02:54:30;-0.80;72.00
69595;DHT22;56800;52.142;5.364;2022-11-20T02:56:57;-0.80;72.00
69595;DHT22;56800;52.142;5.364;2022-11-20T02:59:24;-0.80;72.10
69595;DHT22;56800;52.142;5.364;2022-11-20T03:01:50;-0.80;72.10
69595;DHT22;56800;52.142;5.364;2022-11-20T03:04:17;-0.80;72.10
69595;DHT22;56800;52.142;5.364;2022-11-20T03:06:43;-0.80;72.10
69595;DHT22;56800;52.142;5.364;2022-11-20T03:09:10;-0.80;72.10
69595;DHT22;56800;52.142;5.364;2022-11-20T03:11:37;-0.80;72.00
69595;DHT22;56800;52.142;5.364;2022-11-20T03:14:04;-0.80;71.90
69595;DHT22;56800;52.142;5.364;2022-11-20T03:16:32;-0.80;71.80
69595;DHT22;56800;52.142;5.364;2022-11-20T03:18:59;-0.80;71.70
69595;DHT22;56800;52.142;5.364;2022-11-20T03:21:26;-0.80;71.80
69595;DHT22;56800;52.142;5.364;2022-11-20T03:23:53;-0.80;71.80
69595;DHT22;56800;52.142;5.364;2022-11-20T03:26:22;-0.90;71.70
69595;DHT22;56800;52.142;5.364;2022-11-20T03:28:51;-0.90;71.80
69595;DHT22;56800;52.142;5.364;2022-11-20T03:31:21;-0.90;71.70
69595;DHT22;56800;52.142;5.364;2022-11-20T03:33:48;-0.90;71.70
69595;DHT22;56800;52.142;5.364;2022-11-20T03:36:16;-0.90;71.90
69595;DHT22;56800;52.142;5.364;2022-11-20T03:38:44;-1.00;71.90
69595;DHT22;56800;52.142;5.364;2022-11-20T03:41:17;-1.00;71.90
69595;DHT22;56800;52.142;5.364;2022-11-20T03:43:52;-1.00;71.90
69595;DHT22;56800;52.142;5.364;2022-11-20T03:46:20;-1.00;72.00
69595;DHT22;56800;52.142;5.364;2022-11-20T03:48:47;-1.00;72.00
69595;DHT22;56800;52.142;5.364;2022-11-20T03:51:20;-1.00;72.00
69595;DHT22;56800;52.142;5.364;2022-11-20T03:53:48;-1.00;72.10
69595;DHT22;56800;52.142;5.364;2022-11-20T03:56:17;-1.00;72.20
69595;DHT22;56800;52.142;5.364;2022-11-20T03:58:44;-1.00;72.40
69595;DHT22;56800;52.142;5.364;2022-11-20T04:01:17;-1.00;72.50
69595;DHT22;56800;52.142;5.364;2022-11-20T04:03:45;-1.00;72.50
69595;DHT22;56800;52.142;5.364;2022-11-20T04:06:17;-1.00;72.40
69595;DHT22;56800;52.142;5.364;2022-11-20T04:08:44;-1.00;72.50
69595;DHT22;56800;52.142;5.364;2022-11-20T04:11:24;-1.00;72.50
69595;DHT22;56800;52.142;5.364;2022-11-20T04:13:58;-0.90;72.40
69595;DHT22;56800;52.142;5.364;2022-11-20T04:16:28;-1.00;72.20
69595;DHT22;56800;52.142;5.364;2022-11-20T04:18:58;-0.90;72.20
69595;DHT22;56800;52.142;5.364;2022-11-20T04:21:26;-1.00;72.10
69595;DHT22;56800;52.142;5.364;2022-11-20T04:23:53;-1.00;72.20
69595;DHT22;56800;52.142;5.364;2022-11-20T04:26:21;-1.00;72.20
69595;DHT22;56800;52.142;5.364;2022-11-20T04:28:49;-1.00;72.20
69595;DHT22;56800;52.142;5.364;2022-11-20T04:31:17;-1.00;72.10
69595;DHT22;56800;52.142;5.364;2022-11-20T04:33:45;-1.00;72.10
69595;DHT22;56800;52.142;5.364;2022-11-20T04:36:20;-1.00;72.10
69595;DHT22;56800;52.142;5.364;2022-11-20T04:38:53;-1.10;72.20
69595;DHT22;56800;52.142;5.364;2022-11-20T04:41:27;-1.10;72.30
69595;DHT22;56800;52.142;5.364;2022-11-20T04:43:56;-1.10;72.40
69595;DHT22;56800;52.142;5.364;2022-11-20T04:46:27;-1.10;72.40
69595;DHT22;56800;52.142;5.364;2022-11-20T04:48:54;-1.20;72.40
69595;DHT22;56800;52.142;5.364;2022-11-20T04:51:21;-1.20;72.40
69595;DHT22;56800;52.142;5.364;2022-11-20T04:53:48;-1.20;72.50
69595;DHT22;56800;52.142;5.364;2022-11-20T04:56:15;-1.20;72.60
69595;DHT22;56800;52.142;5.364;2022-11-20T04:58:41;-1.30;72.60
69595;DHT22;56800;52.142;5.364;2022-11-20T05:01:14;-1.30;72.70
69595;DHT22;56800;52.142;5.364;2022-11-20T05:03:41;-1.30;72.70
69595;DHT22;56800;52.142;5.364;2022-11-20T05:06:10;-1.30;72.60
69595;DHT22;56800;52.142;5.364;2022-11-20T05:08:37;-1.30;72.50
69595;DHT22;56800;52.142;5.364;2022-11-20T05:11:12;-1.30;72.60
69595;DHT22;56800;52.142;5.364;2022-11-20T05:13:39;-1.30;72.60
69595;DHT22;56800;52.142;5.364;2022-11-20T05:16:11;-1.30;72.50
69595;DHT22;56800;52.142;5.364;2022-11-20T05:18:39;-1.30;72.70
69595;DHT22;56800;52.142;5.364;2022-11-20T05:21:07;-1.30;72.70
69595;DHT22;56800;52.142;5.364;2022-11-20T05:23:35;-1.40;72.70
69595;DHT22;56800;52.142;5.364;2022-11-20T05:26:02;-1.40;72.90
69595;DHT22;56800;52.142;5.364;2022-11-20T05:28:29;-1.40;72.80
69595;DHT22;56800;52.142;5.364;2022-11-20T05:31:07;-1.40;72.90
69595;DHT22;56800;52.142;5.364;2022-11-20T05:33:35;-1.40;72.90
69595;DHT22;56800;52.142;5.364;2022-11-20T05:36:03;-1.40;72.90
69595;DHT22;56800;52.142;5.364;2022-11-20T05:38:30;-1.40;72.90
69595;DHT22;56800;52.142;5.364;2022-11-20T05:41:07;-1.50;72.80
69595;DHT22;56800;52.142;5.364;2022-11-20T05:43:34;-1.50;72.90
69595;DHT22;56800;52.142;5.364;2022-11-20T05:46:02;-1.50;73.00
69595;DHT22;56800;52.142;5.364;2022-11-20T05:48:29;-1.50;73.00
69595;DHT22;56800;52.142;5.364;2022-11-20T05:50:58;-1.50;73.00
69595;DHT22;56800;52.142;5.364;2022-11-20T05:53:25;-1.50;73.00
69595;DHT22;56800;52.142;5.364;2022-11-20T05:56:02;-1.60;72.90
69595;DHT22;56800;52.142;5.364;2022-11-20T05:58:30;-1.60;73.00
69595;DHT22;56800;52.142;5.364;2022-11-20T06:01:09;-1.60;73.10
69595;DHT22;56800;52.142;5.364;2022-11-20T06:03:36;-1.60;73.20
69595;DHT22;56800;52.142;5.364;2022-11-20T06:06:04;-1.60;73.20
69595;DHT22;56800;52.142;5.364;2022-11-20T06:08:31;-1.60;73.20
69595;DHT22;56800;52.142;5.364;2022-11-20T06:10:58;-1.60;73.20
69595;DHT22;56800;52.142;5.364;2022-11-20T06:13:28;-1.60;73.20
69595;DHT22;56800;52.142;5.364;2022-11-20T06:15:55;-1.60;73.30
69595;DHT22;56800;52.142;5.364;2022-11-20T06:18:22;-1.60;73.40
69595;DHT22;56800;52.142;5.364;2022-11-20T06:20:48;-1.50;73.60
69595;DHT22;56800;52.142;5.364;2022-11-20T06:23:15;-1.60;73.60
69595;DHT22;56800;52.142;5.364;2022-11-20T06:25:42;-1.50;73.60
69595;DHT22;56800;52.142;5.364;2022-11-20T06:28:09;-1.50;73.60
69595;DHT22;56800;52.142;5.364;2022-11-20T06:30:36;-1.60;73.60
69595;DHT22;56800;52.142;5.364;2022-11-20T06:33:03;-1.50;73.60
69595;DHT22;56800;52.142;5.364;2022-11-20T06:35:29;-1.50;73.60
69595;DHT22;56800;52.142;5.364;2022-11-20T06:37:56;-1.50;73.60
69595;DHT22;56800;52.142;5.364;2022-11-20T06:40:23;-1.50;73.60
69595;DHT22;56800;52.142;5.364;2022-11-20T06:42:50;-1.50;73.70
69595;DHT22;56800;52.142;5.364;2022-11-20T06:45:16;-1.50;73.60
69595;DHT22;56800;52.142;5.364;2022-11-20T06:47:43;-1.60;73.60
69595;DHT22;56800;52.142;5.364;2022-11-20T06:50:09;-1.60;73.60
69595;DHT22;56800;52.142;5.364;2022-11-20T06:52:36;-1.60;73.60
69595;DHT22;56800;52.142;5.364;2022-11-20T06:55:09;-1.60;73.70
69595;DHT22;56800;52.142;5.364;2022-11-20T06:57:35;-1.60;73.70
69595;DHT22;56800;52.142;5.364;2022-11-20T07:00:02;-1.60;73.80
69595;DHT22;56800;52.142;5.364;2022-11-20T07:02:29;-1.60;73.80
69595;DHT22;56800;52.142;5.364;2022-11-20T07:04:56;-1.60;73.90
69595;DHT22;56800;52.142;5.364;2022-11-20T07:07:22;-1.60;74.00
69595;DHT22;56800;52.142;5.364;2022-11-20T07:09:49;-1.60;74.00
69595;DHT22;56800;52.142;5.364;2022-11-20T07:12:15;-1.60;73.90
69595;DHT22;56800;52.142;5.364;2022-11-20T07:14:42;-1.70;73.90
69595;DHT22;56800;52.142;5.364;2022-11-20T07:17:09;-1.70;73.90
69595;DHT22;56800;52.142;5.364;2022-11-20T07:19:35;-1.70;73.90
69595;DHT22;56800;52.142;5.364;2022-11-20T07:22:02;-1.70;74.00
69595;DHT22;56800;52.142;5.364;2022-11-20T07:24:28;-1.80;74.00
69595;DHT22;56800;52.142;5.364;2022-11-20T07:26:55;-1.80;74.00
69595;DHT22;56800;52.142;5.364;2022-11-20T07:29:21;-1.80;74.00
69595;DHT22;56800;52.142;5.364;2022-11-20T07:31:48;-1.80;74.00
69595;DHT22;56800;52.142;5.364;2022-11-20T07:34:15;-1.80;74.10
69595;DHT22;56800;52.142;5.364;2022-11-20T07:36:42;-1.90;73.90
69595;DHT22;56800;52.142;5.364;2022-11-20T07:39:09;-1.90;74.10
69595;DHT22;56800;52.142;5.364;2022-11-20T07:41:35;-1.90;74.20
69595;DHT22;56800;52.142;5.364;2022-11-20T07:44:02;-1.90;74.20
69595;DHT22;56800;52.142;5.364;2022-11-20T07:46:29;-1.80;74.20
69595;DHT22;56800;52.142;5.364;2022-11-20T07:48:55;-1.90;74.10
69595;DHT22;56800;52.142;5.364;2022-11-20T07:51:22;-1.90;74.30
69595;DHT22;56800;52.142;5.364;2022-11-20T07:53:51;-1.90;74.30
69595;DHT22;56800;52.142;5.364;2022-11-20T07:56:18;-1.90;74.30
69595;DHT22;56800;52.142;5.364;2022-11-20T07:58:45;-1.80;74.30
69595;DHT22;56800;52.142;5.364;2022-11-20T08:01:11;-1.80;74.20
69595;DHT22;56800;52.142;5.364;2022-11-20T08:03:38;-1.80;74.20
69595;DHT22;56800;52.142;5.364;2022-11-20T08:06:05;-1.80;74.90
69595;DHT22;56800;52.142;5.364;2022-11-20T08:08:32;-1.80;74.10
69595;DHT22;56800;52.142;5.364;2022-11-20T08:11:00;-1.70;74.20
69595;DHT22;56800;52.142;5.364;2022-11-20T08:13:45;-1.70;74.20
69595;DHT22;56800;52.142;5.364;2022-11-20T08:16:30;-1.60;74.20
69595;DHT22;56800;52.142;5.364;2022-11-20T08:18:57;-1.60;74.10
69595;DHT22;56800;52.142;5.364;2022-11-20T08:21:23;-1.60;74.20
69595;DHT22;56800;52.142;5.364;2022-11-20T08:23:50;-1.60;74.20
69595;DHT22;56800;52.142;5.364;2022-11-20T08:26:17;-1.60;74.20
69595;DHT22;56800;52.142;5.364;2022-11-20T08:28:43;-1.50;74.30
69595;DHT22;56800;52.142;5.364;2022-11-20T08:31:10;-1.50;74.40
69595;DHT22;56800;52.142;5.364;2022-11-20T08:33:37;-1.40;74.60
69595;DHT22;56800;52.142;5.364;2022-11-20T08:36:04;-1.40;74.50
69595;DHT22;56800;52.142;5.364;2022-11-20T08:38:32;-1.30;74.50
69595;DHT22;56800;52.142;5.364;2022-11-20T08:41:00;-1.30;74.30
69595;DHT22;56800;52.142;5.364;2022-11-20T08:43:45;-1.20;74.40
69595;DHT22;56800;52.142;5.364;2022-11-20T08:46:12;-1.20;74.40
69595;DHT22;56800;52.142;5.364;2022-11-20T08:48:39;-1.20;74.40
69595;DHT22;56800;52.142;5.364;2022-11-20T08:51:05;-1.10;74.30
69595;DHT22;56800;52.142;5.364;2022-11-20T08:53:32;-1.00;74.30
69595;DHT22;56800;52.142;5.364;2022-11-20T08:55:59;-1.10;74.30
69595;DHT22;56800;52.142;5.364;2022-11-20T08:58:26;-1.00;74.40
69595;DHT22;56800;52.142;5.364;2022-11-20T09:00:53;-1.00;74.40
69595;DHT22;56800;52.142;5.364;2022-11-20T09:03:20;-0.90;74.50
69595;DHT22;56800;52.142;5.364;2022-11-20T09:05:46;-0.90;74.40
69595;DHT22;56800;52.142;5.364;2022-11-20T09:08:13;-0.90;74.40
69595;DHT22;56800;52.142;5.364;2022-11-20T09:10:40;-0.80;74.40
69595;DHT22;56800;52.142;5.364;2022-11-20T09:13:07;-0.80;74.30
69595;DHT22;56800;52.142;5.364;2022-11-20T09:15:33;-0.80;74.30
69595;DHT22;56800;52.142;5.364;2022-11-20T09:18:02;-0.80;74.40
69595;DHT22;56800;52.142;5.364;2022-11-20T09:20:30;-0.80;74.30
69595;DHT22;56800;52.142;5.364;2022-11-20T09:22:57;-0.70;74.30
69595;DHT22;56800;52.142;5.364;2022-11-20T09:25:24;-0.70;74.40
69595;DHT22;56800;52.142;5.364;2022-11-20T09:27:58;-0.60;74.60
69595;DHT22;56800;52.142;5.364;2022-11-20T09:30:26;-0.60;74.60
69595;DHT22;56800;52.142;5.364;2022-11-20T09:32:53;-0.50;74.60
69595;DHT22;56800;52.142;5.364;2022-11-20T09:35:19;-0.40;74.50
69595;DHT22;56800;52.142;5.364;2022-11-20T09:37:46;-0.30;74.60
69595;DHT22;56800;52.142;5.364;2022-11-20T09:40:23;-0.20;74.60
69595;DHT22;56800;52.142;5.364;2022-11-20T09:42:57;-0.20;74.60
69595;DHT22;56800;52.142;5.364;2022-11-20T09:54:13;0.30;74.50
69595;DHT22;56800;52.142;5.364;2022-11-20T09:56:50;0.40;74.40
69595;DHT22;56800;52.142;5.364;2022-11-20T09:59:42;0.40;74.30
69595;DHT22;56800;52.142;5.364;2022-11-20T10:02:34;0.50;74.30
69595;DHT22;56800;52.142;5.364;2022-11-20T10:05:23;0.50;74.00
69595;DHT22;56800;52.142;5.364;2022-11-20T10:08:21;0.60;74.00
69595;DHT22;56800;52.142;5.364;2022-11-20T10:10:53;0.70;74.30
69595;DHT22;56800;52.142;5.364;2022-11-20T10:13:46;0.80;74.40
69595;DHT22;56800;52.142;5.364;2022-11-20T10:16:26;0.90;74.40
69595;DHT22;56800;52.142;5.364;2022-11-20T10:19:37;1.00;74.60
69595;DHT22;56800;52.142;5.364;2022-11-20T10:25:01;1.30;74.40
69595;DHT22;56800;52.142;5.364;2022-11-20T10:30:22;1.50;74.00
69595;DHT22;56800;52.142;5.364;2022-11-20T10:33:05;1.50;73.70
69595;DHT22;56800;52.142;5.364;2022-11-20T10:36:25;1.50;73.70
69595;DHT22;56800;52.142;5.364;2022-11-20T10:38:35;1.60;73.60
69595;DHT22;56800;52.142;5.364;2022-11-20T10:41:04;1.60;73.80
69595;DHT22;56800;52.142;5.364;2022-11-20T10:44:03;1.60;74.00
69595;DHT22;56800;52.142;5.364;2022-11-20T10:46:42;1.70;74.20
69595;DHT22;56800;52.142;5.364;2022-11-20T10:49:14;1.80;74.10
69595;DHT22;56800;52.142;5.364;2022-11-20T10:51:49;1.90;74.20
69595;DHT22;56800;52.142;5.364;2022-11-20T10:57:46;1.90;74.20
69595;DHT22;56800;52.142;5.364;2022-11-20T11:00:17;2.00;74.20
69595;DHT22;56800;52.142;5.364;2022-11-20T11:02:50;2.00;74.10
69595;DHT22;56800;52.142;5.364;2022-11-20T11:08:01;2.10;74.40
69595;DHT22;56800;52.142;5.364;2022-11-20T11:10:47;2.10;74.30
69595;DHT22;56800;52.142;5.364;2022-11-20T11:13:25;2.20;74.40
69595;DHT22;56800;52.142;5.364;2022-11-20T11:15:52;2.20;74.30
69595;DHT22;56800;52.142;5.364;2022-11-20T11:18:31;2.30;74.40
69595;DHT22;56800;52.142;5.364;2022-11-20T11:21:01;2.30;74.30
69595;DHT22;56800;52.142;5.364;2022-11-20T11:26:26;2.40;74.30
69595;DHT22;56800;52.142;5.364;2022-11-20T11:28:57;2.40;74.30
69595;DHT22;56800;52.142;5.364;2022-11-20T11:31:29;2.40;74.30
69595;DHT22;56800;52.142;5.364;2022-11-20T11:34:16;2.40;74.40
69595;DHT22;56800;52.142;5.364;2022-11-20T11:36:53;2.40;74.50
69595;DHT22;56800;52.142;5.364;2022-11-20T11:39:21;2.40;74.50
69595;DHT22;56800;52.142;5.364;2022-11-20T11:41:49;2.50;74.60
69595;DHT22;56800;52.142;5.364;2022-11-20T11:44:21;2.50;74.70
69595;DHT22;56800;52.142;5.364;2022-11-20T11:47:24;2.50;74.80
69595;DHT22;56800;52.142;5.364;2022-11-20T11:55:47;2.60;75.10
69595;DHT22;56800;52.142;5.364;2022-11-20T11:58:47;2.60;75.20
69595;DHT22;56800;52.142;5.364;2022-11-20T12:04:33;2.70;75.30
69595;DHT22;56800;52.142;5.364;2022-11-20T12:07:13;2.70;75.40
69595;DHT22;56800;52.142;5.364;2022-11-20T12:10:03;2.70;75.50
69595;DHT22;56800;52.142;5.364;2022-11-20T12:12:40;2.80;75.70
69595;DHT22;56800;52.142;5.364;2022-11-20T12:15:11;2.80;75.70
69595;DHT22;56800;52.142;5.364;2022-11-20T12:17:39;2.80;75.70
69595;DHT22;56800;52.142;5.364;2022-11-20T12:20:12;2.90;75.90
69595;DHT22;56800;52.142;5.364;2022-11-20T12:25:24;2.90;76.20
69595;DHT22;56800;52.142;5.364;2022-11-20T12:30:23;3.00;76.40
69595;DHT22;56800;52.142;5.364;2022-11-20T12:33:27;3.00;76.50
69595;DHT22;56800;52.142;5.364;2022-11-20T12:39:08;3.00;76.70
69595;DHT22;56800;52.142;5.364;2022-11-20T12:47:48;3.00;76.90
69595;DHT22;56800;52.142;5.364;2022-11-20T12:53:44;3.00;77.10
69595;DHT22;56800;52.142;5.364;2022-11-20T12:57:00;3.10;77.30
69595;DHT22;56800;52.142;5.364;2022-11-20T13:05:18;3.00;77.60
69595;DHT22;56800;52.142;5.364;2022-11-20T13:07:47;3.10;77.70
69595;DHT22;56800;52.142;5.364;2022-11-20T13:10:39;3.10;77.90
69595;DHT22;56800;52.142;5.364;2022-11-20T13:13:33;3.10;78.00
69595;DHT22;56800;52.142;5.364;2022-11-20T13:18:54;3.10;78.20
69595;DHT22;56800;52.142;5.364;2022-11-20T13:21:35;3.10;78.30
69595;DHT22;56800;52.142;5.364;2022-11-20T13:24:06;3.20;78.50
69595;DHT22;56800;52.142;5.364;2022-11-20T13:26:33;3.20;78.50
69595;DHT22;56800;52.142;5.364;2022-11-20T13:29:11;3.20;78.50
69595;DHT22;56800;52.142;5.364;2022-11-20T13:31:43;3.20;78.60
69595;DHT22;56800;52.142;5.364;2022-11-20T13:34:13;3.20;78.50
69595;DHT22;56800;52.142;5.364;2022-11-20T13:36:50;3.20;79.30
69595;DHT22;56800;52.142;5.364;2022-11-20T13:39:28;3.20;78.60
69595;DHT22;56800;52.142;5.364;2022-11-20T13:42:01;3.20;78.70
69595;DHT22;56800;52.142;5.364;2022-11-20T13:44:46;3.20;78.80
69595;DHT22;56800;52.142;5.364;2022-11-20T13:47:27;3.20;78.90
69595;DHT22;56800;52.142;5.364;2022-11-20T13:49:55;3.20;78.90
69595;DHT22;56800;52.142;5.364;2022-11-20T13:58:16;3.30;79.10
69595;DHT22;56800;52.142;5.364;2022-11-20T14:01:20;3.30;79.00
69595;DHT22;56800;52.142;5.364;2022-11-20T14:03:44;3.30;79.00
69595;DHT22;56800;52.142;5.364;2022-11-20T14:06:51;3.30;79.10
69595;DHT22;56800;52.142;5.364;2022-11-20T14:09:30;3.30;79.20
69595;DHT22;56800;52.142;5.364;2022-11-20T14:11:57;3.30;79.30
69595;DHT22;56800;52.142;5.364;2022-11-20T14:14:26;3.30;79.20
69595;DHT22;56800;52.142;5.364;2022-11-20T14:19:45;3.30;79.30
69595;DHT22;56800;52.142;5.364;2022-11-20T14:22:22;3.30;79.30
69595;DHT22;56800;52.142;5.364;2022-11-20T14:27:28;3.30;79.40
69595;DHT22;56800;52.142;5.364;2022-11-20T14:29:55;3.30;79.40
69595;DHT22;56800;52.142;5.364;2022-11-20T14:32:24;3.30;79.40
69595;DHT22;56800;52.142;5.364;2022-11-20T14:34:52;3.30;79.50
69595;DHT22;56800;52.142;5.364;2022-11-20T14:37:24;3.30;79.60
69595;DHT22;56800;52.142;5.364;2022-11-20T14:39:54;3.30;79.70
69595;DHT22;56800;52.142;5.364;2022-11-20T14:42:24;3.30;79.60
69595;DHT22;56800;52.142;5.364;2022-11-20T14:44:54;3.40;79.70
69595;DHT22;56800;52.142;5.364;2022-11-20T14:47:24;3.40;79.70
69595;DHT22;56800;52.142;5.364;2022-11-20T14:49:52;3.40;79.60
69595;DHT22;56800;52.142;5.364;2022-11-20T14:52:24;3.40;79.60
69595;DHT22;56800;52.142;5.364;2022-11-20T14:54:57;3.40;79.70
69595;DHT22;56800;52.142;5.364;2022-11-20T14:57:33;3.40;79.70
69595;DHT22;56800;52.142;5.364;2022-11-20T15:02:42;3.40;79.80
69595;DHT22;56800;52.142;5.364;2022-11-20T15:05:09;3.40;79.80
69595;DHT22;56800;52.142;5.364;2022-11-20T15:07:44;3.40;79.90
69595;DHT22;56800;52.142;5.364;2022-11-20T15:12:53;3.40;79.80
69595;DHT22;56800;52.142;5.364;2022-11-20T15:18:19;3.40;79.90
69595;DHT22;56800;52.142;5.364;2022-11-20T15:20:47;3.40;79.90
69595;DHT22;56800;52.142;5.364;2022-11-20T15:23:16;3.40;79.90
69595;DHT22;56800;52.142;5.364;2022-11-20T15:25:47;3.40;79.90
69595;DHT22;56800;52.142;5.364;2022-11-20T15:28:18;3.40;80.00
69595;DHT22;56800;52.142;5.364;2022-11-20T15:30:47;3.40;80.00
69595;DHT22;56800;52.142;5.364;2022-11-20T15:33:14;3.40;80.00
69595;DHT22;56800;52.142;5.364;2022-11-20T15:35:42;3.40;80.00
69595;DHT22;56800;52.142;5.364;2022-11-20T15:38:09;3.40;80.00
69595;DHT22;56800;52.142;5.364;2022-11-20T15:40:36;3.40;80.10
69595;DHT22;56800;52.142;5.364;2022-11-20T15:43:03;3.40;80.10
69595;DHT22;56800;52.142;5.364;2022-11-20T15:48:05;3.40;80.20
69595;DHT22;56800;52.142;5.364;2022-11-20T15:50:38;3.40;80.10
69595;DHT22;56800;52.142;5.364;2022-11-20T15:53:05;3.40;80.20
69595;DHT22;56800;52.142;5.364;2022-11-20T15:55:32;3.40;80.30
69595;DHT22;56800;52.142;5.364;2022-11-20T15:57:59;3.50;80.30
69595;DHT22;56800;52.142;5.364;2022-11-20T16:00:25;3.40;80.30
69595;DHT22;56800;52.142;5.364;2022-11-20T16:02:52;3.50;80.40
69595;DHT22;56800;52.142;5.364;2022-11-20T16:05:19;3.50;80.40
69595;DHT22;56800;52.142;5.364;2022-11-20T16:07:46;3.40;80.40
69595;DHT22;56800;52.142;5.364;2022-11-20T16:10:12;3.50;80.40
69595;DHT22;56800;52.142;5.364;2022-11-20T16:12:39;3.50;80.40
69595;DHT22;56800;52.142;5.364;2022-11-20T16:15:24;3.50;80.40
69595;DHT22;56800;52.142;5.364;2022-11-20T16:18:11;3.50;80.40
69595;DHT22;56800;52.142;5.364;2022-11-20T16:20:38;3.50;81.20
69595;DHT22;56800;52.142;5.364;2022-11-20T16:23:06;3.50;80.50
69595;DHT22;56800;52.142;5.364;2022-11-20T16:25:33;3.60;80.60
69595;DHT22;56800;52.142;5.364;2022-11-20T16:28:00;3.50;80.60
69595;DHT22;56800;52.142;5.364;2022-11-20T16:30:27;3.50;80.60
69595;DHT22;56800;52.142;5.364;2022-11-20T16:32:53;3.50;80.70
69595;DHT22;56800;52.142;5.364;2022-11-20T16:35:20;3.60;80.70
69595;DHT22;56800;52.142;5.364;2022-11-20T16:37:47;3.60;80.80
69595;DHT22;56800;52.142;5.364;2022-11-20T16:40:14;3.60;80.80
69595;DHT22;56800;52.142;5.364;2022-11-20T16:42:40;3.60;80.80
69595;DHT22;56800;52.142;5.364;2022-11-20T16:45:07;3.60;80.80
69595;DHT22;56800;52.142;5.364;2022-11-20T16:47:34;3.60;80.80
69595;DHT22;56800;52.142;5.364;2022-11-20T16:50:02;3.60;80.90
69595;DHT22;56800;52.142;5.364;2022-11-20T16:52:30;3.60;80.80
69595;DHT22;56800;52.142;5.364;2022-11-20T16:54:57;3.60;80.90
69595;DHT22;56800;52.142;5.364;2022-11-20T16:57:25;3.60;80.90
69595;DHT22;56800;52.142;5.364;2022-11-20T16:59:53;3.70;81.00
69595;DHT22;56800;52.142;5.364;2022-11-20T17:02:25;3.60;81.00
69595;DHT22;56800;52.142;5.364;2022-11-20T17:04:52;3.70;81.10
69595;DHT22;56800;52.142;5.364;2022-11-20T17:07:19;3.70;81.20
69595;DHT22;56800;52.142;5.364;2022-11-20T17:09:46;3.70;81.20
69595;DHT22;56800;52.142;5.364;2022-11-20T17:12:13;3.70;81.30
69595;DHT22;56800;52.142;5.364;2022-11-20T17:14:40;3.70;81.20
69595;DHT22;56800;52.142;5.364;2022-11-20T17:17:06;3.70;81.20
69595;DHT22;56800;52.142;5.364;2022-11-20T17:19:33;3.80;81.20
69595;DHT22;56800;52.142;5.364;2022-11-20T17:22:00;3.80;81.20
69595;DHT22;56800;52.142;5.364;2022-11-20T17:24:26;3.80;81.20